sensor_id;sensor_type;location;lat;lon;timestamp;P1;durP1;ratioP1;P2;durP2;ratioP2
5650;SDS011;40241;52.684;9.758;2023-12-20T00:01:19;2.80;;;1.57;;
5650;SDS011;40241;52.684;9.758;2023-12-20T00:03:44;2.60;;;1.70;;
5650;SDS011;40241;52.684;9.758;2023-12-20T00:06:09;6.70;;;1.60;;
5650;SDS011;40241;52.684;9.758;2023-12-20T00:08:35;6.20;;;1.53;;
5650;SDS011;40241;52.684;9.758;2023-12-20T00:11:00;4.30;;;1.40;;
5650;SDS011;40241;52.684;9.758;2023-12-20T00:13:26;1.97;;;1.10;;
5650;SDS011;40241;52.684;9.758;2023-12-20T00:15:51;6.40;;;1.50;;
5650;SDS011;40241;52.684;9.758;2023-12-20T00:18:16;1.63;;;1.30;;
5650;SDS011;40241;52.684;9.758;2023-12-20T00:20:42;6.37;;;1.40;;
5650;SDS011;40241;52.684;9.758;2023-12-20T00:23:07;2.13;;;1.23;;
5650;SDS011;40241;52.684;9.758;2023-12-20T00:25:33;6.73;;;1.70;;
5650;SDS011;40241;52.684;9.758;2023-12-20T00:27:59;3.00;;;1.40;;
5650;SDS011;40241;52.684;9.758;2023-12-20T00:30:25;3.40;;;1.20;;
5650;SDS011;40241;52.684;9.758;2023-12-20T00:32:50;3.37;;;1.20;;
5650;SDS011;40241;52.684;9.758;2023-12-20T00:35:15;6.73;;;1.40;;
5650;SDS011;40241;52.684;9.758;2023-12-20T00:37:41;4.80;;;1.40;;
5650;SDS011;40241;52.684;9.758;2023-12-20T00:40:08;4.57;;;1.40;;
5650;SDS011;40241;52.684;9.758;2023-12-20T00:42:34;6.40;;;1.23;;
5650;SDS011;40241;52.684;9.758;2023-12-20T00:45:00;2.77;;;1.03;;
5650;SDS011;40241;52.684;9.758;2023-12-20T00:47:26;4.30;;;1.67;;
5650;SDS011;40241;52.684;9.758;2023-12-20T00:49:51;4.23;;;1.33;;
5650;SDS011;40241;52.684;9.758;2023-12-20T00:52:16;9.63;;;1.37;;
5650;SDS011;40241;52.684;9.758;2023-12-20T00:54:42;7.00;;;1.40;;
5650;SDS011;40241;52.684;9.758;2023-12-20T00:57:08;5.43;;;1.13;;
5650;SDS011;40241;52.684;9.758;2023-12-20T00:59:34;1.70;;;1.20;;
5650;SDS011;40241;52.684;9.758;2023-12-20T01:01:59;2.80;;;1.00;;
5650;SDS011;40241;52.684;9.758;2023-12-20T01:04:24;5.97;;;1.70;;
5650;SDS011;40241;52.684;9.758;2023-12-20T01:06:50;7.80;;;1.73;;
5650;SDS011;40241;52.684;9.758;2023-12-20T01:09:16;3.17;;;1.30;;
5650;SDS011;40241;52.684;9.758;2023-12-20T01:11:43;4.63;;;1.47;;
5650;SDS011;40241;52.684;9.758;2023-12-20T01:14:08;9.53;;;1.10;;
5650;SDS011;40241;52.684;9.758;2023-12-20T01:16:34;4.67;;;1.60;;
5650;SDS011;40241;52.684;9.758;2023-12-20T01:18:59;7.70;;;1.50;;
5650;SDS011;40241;52.684;9.758;2023-12-20T01:21:24;3.30;;;1.33;;
5650;SDS011;40241;52.684;9.758;2023-12-20T01:23:50;5.90;;;2.00;;
5650;SDS011;40241;52.684;9.758;2023-12-20T01:26:15;2.97;;;1.47;;
5650;SDS011;40241;52.684;9.758;2023-12-20T01:28:41;4.90;;;1.40;;
5650;SDS011;40241;52.684;9.758;2023-12-20T01:31:07;2.57;;;1.17;;
5650;SDS011;40241;52.684;9.758;2023-12-20T01:33:32;3.70;;;1.53;;
5650;SDS011;40241;52.684;9.758;2023-12-20T01:35:57;4.70;;;1.17;;
5650;SDS011;40241;52.684;9.758;2023-12-20T01:38:23;2.33;;;1.10;;
5650;SDS011;40241;52.684;9.758;2023-12-20T01:40:48;2.53;;;1.43;;
5650;SDS011;40241;52.684;9.758;2023-12-20T01:43:13;7.50;;;1.10;;
5650;SDS011;40241;52.684;9.758;2023-12-20T01:45:39;2.93;;;1.20;;
5650;SDS011;40241;52.684;9.758;2023-12-20T01:48:05;5.27;;;1.40;;
5650;SDS011;40241;52.684;9.758;2023-12-20T01:50:31;3.10;;;1.17;;
5650;SDS011;40241;52.684;9.758;2023-12-20T01:53:00;5.33;;;1.70;;
5650;SDS011;40241;52.684;9.758;2023-12-20T01:55:27;5.77;;;1.40;;
5650;SDS011;40241;52.684;9.758;2023-12-20T01:57:54;6.20;;;1.40;;
5650;SDS011;40241;52.684;9.758;2023-12-20T02:00:21;3.50;;;1.07;;
5650;SDS011;40241;52.684;9.758;2023-12-20T02:02:52;4.57;;;1.53;;
5650;SDS011;40241;52.684;9.758;2023-12-20T02:05:18;5.33;;;1.03;;
5650;SDS011;40241;52.684;9.758;2023-12-20T02:07:44;2.20;;;1.20;;
5650;SDS011;40241;52.684;9.758;2023-12-20T02:10:09;5.13;;;1.40;;
5650;SDS011;40241;52.684;9.758;2023-12-20T02:12:34;7.80;;;1.50;;
5650;SDS011;40241;52.684;9.758;2023-12-20T02:15:00;3.50;;;1.63;;
5650;SDS011;40241;52.684;9.758;2023-12-20T02:17:26;3.73;;;1.47;;
5650;SDS011;40241;52.684;9.758;2023-12-20T02:19:52;5.00;;;1.73;;
5650;SDS011;40241;52.684;9.758;2023-12-20T02:22:18;3.60;;;1.50;;
5650;SDS011;40241;52.684;9.758;2023-12-20T02:24:43;4.73;;;1.67;;
5650;SDS011;40241;52.684;9.758;2023-12-20T02:27:08;2.13;;;1.83;;
5650;SDS011;40241;52.684;9.758;2023-12-20T02:29:34;4.10;;;1.30;;
5650;SDS011;40241;52.684;9.758;2023-12-20T02:32:00;4.00;;;1.60;;
5650;SDS011;40241;52.684;9.758;2023-12-20T02:34:25;4.40;;;2.60;;
5650;SDS011;40241;52.684;9.758;2023-12-20T02:36:51;11.03;;;2.10;;
5650;SDS011;40241;52.684;9.758;2023-12-20T02:39:16;7.53;;;2.30;;
5650;SDS011;40241;52.684;9.758;2023-12-20T02:41:42;11.17;;;2.43;;
5650;SDS011;40241;52.684;9.758;2023-12-20T02:44:07;8.00;;;1.70;;
5650;SDS011;40241;52.684;9.758;2023-12-20T02:46:33;4.50;;;1.60;;
5650;SDS011;40241;52.684;9.758;2023-12-20T02:48:58;7.47;;;2.70;;
5650;SDS011;40241;52.684;9.758;2023-12-20T02:51:23;3.23;;;1.70;;
5650;SDS011;40241;52.684;9.758;2023-12-20T02:53:49;4.70;;;1.50;;
5650;SDS011;40241;52.684;9.758;2023-12-20T02:56:14;7.80;;;2.13;;
5650;SDS011;40241;52.684;9.758;2023-12-20T02:58:39;1.93;;;1.10;;
5650;SDS011;40241;52.684;9.758;2023-12-20T03:01:05;4.83;;;1.33;;
5650;SDS011;40241;52.684;9.758;2023-12-20T03:03:31;6.30;;;1.40;;
5650;SDS011;40241;52.684;9.758;2023-12-20T03:05:56;8.93;;;1.50;;
5650;SDS011;40241;52.684;9.758;2023-12-20T03:08:21;2.23;;;0.90;;
5650;SDS011;40241;52.684;9.758;2023-12-20T03:10:47;7.67;;;1.63;;
5650;SDS011;40241;52.684;9.758;2023-12-20T03:13:12;9.27;;;1.13;;
5650;SDS011;40241;52.684;9.758;2023-12-20T03:15:37;7.53;;;1.57;;
5650;SDS011;40241;52.684;9.758;2023-12-20T03:18:03;6.10;;;1.00;;
5650;SDS011;40241;52.684;9.758;2023-12-20T03:20:28;5.60;;;1.33;;
5650;SDS011;40241;52.684;9.758;2023-12-20T03:22:56;3.77;;;0.90;;
5650;SDS011;40241;52.684;9.758;2023-12-20T03:25:21;10.93;;;1.67;;
5650;SDS011;40241;52.684;9.758;2023-12-20T03:27:46;2.57;;;1.10;;
5650;SDS011;40241;52.684;9.758;2023-12-20T03:30:12;4.17;;;1.23;;
5650;SDS011;40241;52.684;9.758;2023-12-20T03:32:38;2.07;;;0.90;;
5650;SDS011;40241;52.684;9.758;2023-12-20T03:35:03;5.80;;;1.57;;
5650;SDS011;40241;52.684;9.758;2023-12-20T03:37:29;5.00;;;1.40;;
5650;SDS011;40241;52.684;9.758;2023-12-20T03:39:54;1.87;;;1.10;;
5650;SDS011;40241;52.684;9.758;2023-12-20T03:42:20;5.73;;;1.13;;
5650;SDS011;40241;52.684;9.758;2023-12-20T03:44:45;5.43;;;1.20;;
5650;SDS011;40241;52.684;9.758;2023-12-20T03:47:10;5.50;;;1.77;;
5650;SDS011;40241;52.684;9.758;2023-12-20T03:49:35;5.57;;;1.40;;
5650;SDS011;40241;52.684;9.758;2023-12-20T03:52:02;6.73;;;1.33;;
5650;SDS011;40241;52.684;9.758;2023-12-20T03:54:28;2.70;;;1.10;;
5650;SDS011;40241;52.684;9.758;2023-12-20T03:56:53;13.97;;;2.07;;
5650;SDS011;40241;52.684;9.758;2023-12-20T03:59:18;3.40;;;1.50;;
5650;SDS011;40241;52.684;9.758;2023-12-20T04:01:44;8.10;;;1.80;;
5650;SDS011;40241;52.684;9.758;2023-12-20T04:04:10;5.03;;;1.40;;
5650;SDS011;40241;52.684;9.758;2023-12-20T04:06:35;2.77;;;1.47;;
5650;SDS011;40241;52.684;9.758;2023-12-20T04:09:01;2.97;;;2.07;;
5650;SDS011;40241;52.684;9.758;2023-12-20T04:11:26;6.43;;;1.43;;
5650;SDS011;40241;52.684;9.758;2023-12-20T04:13:51;5.30;;;1.60;;
5650;SDS011;40241;52.684;9.758;2023-12-20T04:16:17;6.10;;;1.60;;
5650;SDS011;40241;52.684;9.758;2023-12-20T04:18:42;4.43;;;1.90;;
5650;SDS011;40241;52.684;9.758;2023-12-20T04:21:07;9.33;;;1.80;;
5650;SDS011;40241;52.684;9.758;2023-12-20T04:23:32;6.47;;;1.60;;
5650;SDS011;40241;52.684;9.758;2023-12-20T04:25:58;5.67;;;2.03;;
5650;SDS011;40241;52.684;9.758;2023-12-20T04:28:23;10.40;;;1.87;;
5650;SDS011;40241;52.684;9.758;2023-12-20T04:30:48;4.87;;;1.60;;
5650;SDS011;40241;52.684;9.758;2023-12-20T04:33:14;3.30;;;1.93;;
5650;SDS011;40241;52.684;9.758;2023-12-20T04:35:39;5.70;;;1.80;;
5650;SDS011;40241;52.684;9.758;2023-12-20T04:38:06;5.90;;;2.20;;
5650;SDS011;40241;52.684;9.758;2023-12-20T04:40:31;10.13;;;2.13;;
5650;SDS011;40241;52.684;9.758;2023-12-20T04:42:57;4.27;;;1.87;;
5650;SDS011;40241;52.684;9.758;2023-12-20T04:45:22;7.13;;;1.80;;
5650;SDS011;40241;52.684;9.758;2023-12-20T04:47:49;5.83;;;1.77;;
5650;SDS011;40241;52.684;9.758;2023-12-20T04:50:15;6.90;;;2.50;;
5650;SDS011;40241;52.684;9.758;2023-12-20T04:52:41;6.73;;;2.20;;
5650;SDS011;40241;52.684;9.758;2023-12-20T04:55:06;7.10;;;1.90;;
5650;SDS011;40241;52.684;9.758;2023-12-20T04:57:31;9.73;;;2.30;;
5650;SDS011;40241;52.684;9.758;2023-12-20T04:59:57;6.33;;;1.90;;
5650;SDS011;40241;52.684;9.758;2023-12-20T05:02:22;7.40;;;2.30;;
5650;SDS011;40241;52.684;9.758;2023-12-20T05:04:48;8.53;;;2.07;;
5650;SDS011;40241;52.684;9.758;2023-12-20T05:07:13;11.73;;;2.57;;
5650;SDS011;40241;52.684;9.758;2023-12-20T05:09:38;9.77;;;2.47;;
5650;SDS011;40241;52.684;9.758;2023-12-20T05:12:04;4.17;;;1.80;;
5650;SDS011;40241;52.684;9.758;2023-12-20T05:14:30;5.83;;;1.70;;
5650;SDS011;40241;52.684;9.758;2023-12-20T05:16:55;8.57;;;2.07;;
5650;SDS011;40241;52.684;9.758;2023-12-20T05:19:21;17.40;;;2.20;;
5650;SDS011;40241;52.684;9.758;2023-12-20T05:21:47;7.37;;;1.90;;
5650;SDS011;40241;52.684;9.758;2023-12-20T05:24:12;4.73;;;1.97;;
5650;SDS011;40241;52.684;9.758;2023-12-20T05:26:37;6.10;;;2.00;;
5650;SDS011;40241;52.684;9.758;2023-12-20T05:29:03;6.07;;;1.50;;
5650;SDS011;40241;52.684;9.758;2023-12-20T05:31:28;8.87;;;1.60;;
5650;SDS011;40241;52.684;9.758;2023-12-20T05:33:53;8.10;;;1.90;;
5650;SDS011;40241;52.684;9.758;2023-12-20T05:36:19;8.30;;;2.20;;
5650;SDS011;40241;52.684;9.758;2023-12-20T05:38:44;9.40;;;1.80;;
5650;SDS011;40241;52.684;9.758;2023-12-20T05:41:10;6.30;;;1.80;;
5650;SDS011;40241;52.684;9.758;2023-12-20T05:43:35;9.00;;;2.03;;
5650;SDS011;40241;52.684;9.758;2023-12-20T05:46:00;4.73;;;1.93;;
5650;SDS011;40241;52.684;9.758;2023-12-20T05:48:26;6.00;;;2.00;;
5650;SDS011;40241;52.684;9.758;2023-12-20T05:50:52;14.87;;;2.23;;
5650;SDS011;40241;52.684;9.758;2023-12-20T05:53:17;4.37;;;1.80;;
5650;SDS011;40241;52.684;9.758;2023-12-20T05:55:43;7.80;;;2.30;;
5650;SDS011;40241;52.684;9.758;2023-12-20T05:58:08;4.60;;;2.07;;
5650;SDS011;40241;52.684;9.758;2023-12-20T06:00:33;7.73;;;2.50;;
5650;SDS011;40241;52.684;9.758;2023-12-20T06:02:59;5.93;;;2.00;;
5650;SDS011;40241;52.684;9.758;2023-12-20T06:05:24;7.10;;;2.40;;
5650;SDS011;40241;52.684;9.758;2023-12-20T06:07:49;4.33;;;2.10;;
5650;SDS011;40241;52.684;9.758;2023-12-20T06:10:15;9.57;;;2.00;;
5650;SDS011;40241;52.684;9.758;2023-12-20T06:12:41;7.37;;;2.57;;
5650;SDS011;40241;52.684;9.758;2023-12-20T06:15:07;10.77;;;2.37;;
5650;SDS011;40241;52.684;9.758;2023-12-20T06:17:32;11.27;;;2.87;;
5650;SDS011;40241;52.684;9.758;2023-12-20T06:19:59;7.83;;;2.10;;
5650;SDS011;40241;52.684;9.758;2023-12-20T06:22:25;9.10;;;2.50;;
5650;SDS011;40241;52.684;9.758;2023-12-20T06:24:50;10.53;;;2.57;;
5650;SDS011;40241;52.684;9.758;2023-12-20T06:27:16;5.40;;;1.70;;
5650;SDS011;40241;52.684;9.758;2023-12-20T06:29:41;7.40;;;2.30;;
5650;SDS011;40241;52.684;9.758;2023-12-20T06:32:07;6.70;;;2.13;;
5650;SDS011;40241;52.684;9.758;2023-12-20T06:34:33;6.87;;;1.43;;
5650;SDS011;40241;52.684;9.758;2023-12-20T06:36:58;7.50;;;2.20;;
5650;SDS011;40241;52.684;9.758;2023-12-20T06:39:23;7.43;;;1.90;;
5650;SDS011;40241;52.684;9.758;2023-12-20T06:41:49;10.57;;;2.33;;
5650;SDS011;40241;52.684;9.758;2023-12-20T06:44:14;12.50;;;2.50;;
5650;SDS011;40241;52.684;9.758;2023-12-20T06:46:39;10.13;;;2.30;;
5650;SDS011;40241;52.684;9.758;2023-12-20T06:49:04;10.50;;;2.10;;
5650;SDS011;40241;52.684;9.758;2023-12-20T06:51:30;10.20;;;2.83;;
5650;SDS011;40241;52.684;9.758;2023-12-20T06:53:56;7.93;;;2.10;;
5650;SDS011;40241;52.684;9.758;2023-12-20T06:56:21;10.20;;;2.43;;
5650;SDS011;40241;52.684;9.758;2023-12-20T06:58:47;8.10;;;2.13;;
5650;SDS011;40241;52.684;9.758;2023-12-20T07:01:15;4.73;;;1.70;;
5650;SDS011;40241;52.684;9.758;2023-12-20T07:03:41;8.60;;;2.40;;
5650;SDS011;40241;52.684;9.758;2023-12-20T07:06:07;9.23;;;2.20;;
5650;SDS011;40241;52.684;9.758;2023-12-20T07:08:32;8.13;;;2.30;;
5650;SDS011;40241;52.684;9.758;2023-12-20T07:10:58;11.23;;;2.27;;
5650;SDS011;40241;52.684;9.758;2023-12-20T07:13:23;12.37;;;2.10;;
5650;SDS011;40241;52.684;9.758;2023-12-20T07:15:49;14.10;;;2.03;;
5650;SDS011;40241;52.684;9.758;2023-12-20T07:18:15;4.83;;;1.67;;
5650;SDS011;40241;52.684;9.758;2023-12-20T07:20:40;14.07;;;2.67;;
5650;SDS011;40241;52.684;9.758;2023-12-20T07:23:06;8.33;;;1.87;;
5650;SDS011;40241;52.684;9.758;2023-12-20T07:25:31;6.93;;;1.97;;
5650;SDS011;40241;52.684;9.758;2023-12-20T07:27:57;7.47;;;1.90;;
5650;SDS011;40241;52.684;9.758;2023-12-20T07:30:23;8.67;;;2.27;;
5650;SDS011;40241;52.684;9.758;2023-12-20T07:32:48;15.00;;;3.00;;
5650;SDS011;40241;52.684;9.758;2023-12-20T07:35:15;5.73;;;2.40;;
5650;SDS011;40241;52.684;9.758;2023-12-20T07:37:40;13.43;;;2.30;;
5650;SDS011;40241;52.684;9.758;2023-12-20T07:40:06;9.30;;;2.27;;
5650;SDS011;40241;52.684;9.758;2023-12-20T07:42:32;12.90;;;2.07;;
5650;SDS011;40241;52.684;9.758;2023-12-20T07:44:57;4.77;;;1.60;;
5650;SDS011;40241;52.684;9.758;2023-12-20T07:47:23;9.53;;;2.30;;
5650;SDS011;40241;52.684;9.758;2023-12-20T07:49:50;6.90;;;2.13;;
5650;SDS011;40241;52.684;9.758;2023-12-20T07:52:16;9.53;;;2.07;;
5650;SDS011;40241;52.684;9.758;2023-12-20T07:54:43;8.93;;;2.37;;
5650;SDS011;40241;52.684;9.758;2023-12-20T07:57:08;6.07;;;2.20;;
5650;SDS011;40241;52.684;9.758;2023-12-20T07:59:34;6.47;;;2.40;;
5650;SDS011;40241;52.684;9.758;2023-12-20T08:01:59;7.50;;;2.53;;
5650;SDS011;40241;52.684;9.758;2023-12-20T08:04:24;13.20;;;2.40;;
5650;SDS011;40241;52.684;9.758;2023-12-20T08:06:50;7.07;;;2.10;;
5650;SDS011;40241;52.684;9.758;2023-12-20T08:09:15;8.33;;;2.13;;
5650;SDS011;40241;52.684;9.758;2023-12-20T08:11:44;10.50;;;2.17;;
5650;SDS011;40241;52.684;9.758;2023-12-20T08:14:12;3.43;;;1.60;;
5650;SDS011;40241;52.684;9.758;2023-12-20T08:16:38;11.70;;;1.90;;
5650;SDS011;40241;52.684;9.758;2023-12-20T08:19:04;12.13;;;2.50;;
5650;SDS011;40241;52.684;9.758;2023-12-20T08:21:29;5.47;;;2.27;;
5650;SDS011;40241;52.684;9.758;2023-12-20T08:23:54;13.30;;;2.30;;
5650;SDS011;40241;52.684;9.758;2023-12-20T08:26:20;5.03;;;1.70;;
5650;SDS011;40241;52.684;9.758;2023-12-20T08:28:46;9.30;;;2.50;;
5650;SDS011;40241;52.684;9.758;2023-12-20T08:31:15;8.57;;;2.10;;
5650;SDS011;40241;52.684;9.758;2023-12-20T08:33:45;5.83;;;1.70;;
5650;SDS011;40241;52.684;9.758;2023-12-20T08:36:11;7.47;;;2.30;;
5650;SDS011;40241;52.684;9.758;2023-12-20T08:38:37;6.30;;;2.10;;
5650;SDS011;40241;52.684;9.758;2023-12-20T08:41:02;9.03;;;2.60;;
5650;SDS011;40241;52.684;9.758;2023-12-20T08:43:30;9.87;;;2.43;;
5650;SDS011;40241;52.684;9.758;2023-12-20T08:45:55;5.97;;;1.90;;
5650;SDS011;40241;52.684;9.758;2023-12-20T08:48:20;10.50;;;2.10;;
5650;SDS011;40241;52.684;9.758;2023-12-20T08:50:46;8.37;;;1.90;;
5650;SDS011;40241;52.684;9.758;2023-12-20T08:53:13;11.93;;;2.10;;
5650;SDS011;40241;52.684;9.758;2023-12-20T08:55:40;7.60;;;2.20;;
5650;SDS011;40241;52.684;9.758;2023-12-20T08:58:06;11.00;;;2.47;;
5650;SDS011;40241;52.684;9.758;2023-12-20T09:00:32;6.50;;;1.97;;
5650;SDS011;40241;52.684;9.758;2023-12-20T09:02:57;7.27;;;2.10;;
5650;SDS011;40241;52.684;9.758;2023-12-20T09:05:22;7.97;;;2.10;;
5650;SDS011;40241;52.684;9.758;2023-12-20T09:07:47;10.60;;;2.30;;
5650;SDS011;40241;52.684;9.758;2023-12-20T09:10:13;5.50;;;1.90;;
5650;SDS011;40241;52.684;9.758;2023-12-20T09:12:38;8.77;;;2.67;;
5650;SDS011;40241;52.684;9.758;2023-12-20T09:15:06;7.87;;;2.10;;
5650;SDS011;40241;52.684;9.758;2023-12-20T09:17:31;10.30;;;2.03;;
5650;SDS011;40241;52.684;9.758;2023-12-20T09:19:56;4.97;;;2.10;;
5650;SDS011;40241;52.684;9.758;2023-12-20T09:22:22;9.20;;;2.43;;
5650;SDS011;40241;52.684;9.758;2023-12-20T09:24:48;6.53;;;2.30;;
5650;SDS011;40241;52.684;9.758;2023-12-20T09:27:13;10.70;;;2.80;;
5650;SDS011;40241;52.684;9.758;2023-12-20T09:29:38;8.60;;;2.40;;
5650;SDS011;40241;52.684;9.758;2023-12-20T09:32:04;5.10;;;2.20;;
5650;SDS011;40241;52.684;9.758;2023-12-20T09:34:29;9.70;;;2.30;;
5650;SDS011;40241;52.684;9.758;2023-12-20T09:36:54;8.50;;;1.83;;
5650;SDS011;40241;52.684;9.758;2023-12-20T09:39:20;10.47;;;2.53;;
5650;SDS011;40241;52.684;9.758;2023-12-20T09:41:49;9.17;;;2.07;;
5650;SDS011;40241;52.684;9.758;2023-12-20T09:44:24;5.93;;;2.20;;
5650;SDS011;40241;52.684;9.758;2023-12-20T09:46:50;7.30;;;2.40;;
5650;SDS011;40241;52.684;9.758;2023-12-20T09:49:18;8.07;;;2.40;;
5650;SDS011;40241;52.684;9.758;2023-12-20T09:51:44;7.03;;;2.13;;
5650;SDS011;40241;52.684;9.758;2023-12-20T09:54:11;8.90;;;2.07;;
5650;SDS011;40241;52.684;9.758;2023-12-20T09:56:40;10.67;;;1.97;;
5650;SDS011;40241;52.684;9.758;2023-12-20T09:59:06;7.33;;;2.00;;
5650;SDS011;40241;52.684;9.758;2023-12-20T10:01:31;10.33;;;2.47;;
5650;SDS011;40241;52.684;9.758;2023-12-20T10:03:58;5.97;;;1.83;;
5650;SDS011;40241;52.684;9.758;2023-12-20T10:06:25;9.13;;;1.90;;
5650;SDS011;40241;52.684;9.758;2023-12-20T10:08:50;12.10;;;2.47;;
5650;SDS011;40241;52.684;9.758;2023-12-20T10:11:16;4.43;;;2.10;;
5650;SDS011;40241;52.684;9.758;2023-12-20T10:13:42;6.30;;;1.40;;
5650;SDS011;40241;52.684;9.758;2023-12-20T10:16:07;7.97;;;2.10;;
5650;SDS011;40241;52.684;9.758;2023-12-20T10:18:33;10.23;;;2.27;;
5650;SDS011;40241;52.684;9.758;2023-12-20T10:20:58;6.10;;;1.90;;
5650;SDS011;40241;52.684;9.758;2023-12-20T10:23:25;8.77;;;1.33;;
5650;SDS011;40241;52.684;9.758;2023-12-20T10:25:59;7.00;;;2.30;;
5650;SDS011;40241;52.684;9.758;2023-12-20T10:28:25;6.97;;;2.00;;
5650;SDS011;40241;52.684;9.758;2023-12-20T10:30:54;3.77;;;1.80;;
5650;SDS011;40241;52.684;9.758;2023-12-20T10:33:24;9.83;;;2.00;;
5650;SDS011;40241;52.684;9.758;2023-12-20T10:35:51;8.23;;;2.00;;
5650;SDS011;40241;52.684;9.758;2023-12-20T10:38:17;7.70;;;1.90;;
5650;SDS011;40241;52.684;9.758;2023-12-20T10:40:43;8.30;;;2.07;;
5650;SDS011;40241;52.684;9.758;2023-12-20T10:43:10;5.87;;;2.10;;
5650;SDS011;40241;52.684;9.758;2023-12-20T10:45:36;6.70;;;2.13;;
5650;SDS011;40241;52.684;9.758;2023-12-20T10:48:01;6.80;;;1.93;;
5650;SDS011;40241;52.684;9.758;2023-12-20T10:50:27;10.00;;;2.43;;
5650;SDS011;40241;52.684;9.758;2023-12-20T10:52:56;9.63;;;1.77;;
5650;SDS011;40241;52.684;9.758;2023-12-20T10:55:23;3.90;;;1.30;;
5650;SDS011;40241;52.684;9.758;2023-12-20T10:57:52;5.70;;;1.80;;
5650;SDS011;40241;52.684;9.758;2023-12-20T11:00:25;3.43;;;1.30;;
5650;SDS011;40241;52.684;9.758;2023-12-20T11:02:50;3.23;;;1.73;;
5650;SDS011;40241;52.684;9.758;2023-12-20T11:08:02;6.73;;;2.00;;
5650;SDS011;40241;52.684;9.758;2023-12-20T11:10:31;3.90;;;1.30;;
5650;SDS011;40241;52.684;9.758;2023-12-20T11:13:19;10.20;;;2.30;;
5650;SDS011;40241;52.684;9.758;2023-12-20T11:15:47;7.43;;;1.40;;
5650;SDS011;40241;52.684;9.758;2023-12-20T11:18:13;7.07;;;2.10;;
5650;SDS011;40241;52.684;9.758;2023-12-20T11:20:40;4.80;;;1.27;;
5650;SDS011;40241;52.684;9.758;2023-12-20T11:23:09;1.83;;;0.60;;
5650;SDS011;40241;52.684;9.758;2023-12-20T11:25:54;1.70;;;0.60;;
5650;SDS011;40241;52.684;9.758;2023-12-20T11:28:24;7.27;;;0.60;;
5650;SDS011;40241;52.684;9.758;2023-12-20T11:30:53;0.73;;;0.40;;
5650;SDS011;40241;52.684;9.758;2023-12-20T11:33:23;3.10;;;0.57;;
5650;SDS011;40241;52.684;9.758;2023-12-20T11:35:51;0.57;;;0.40;;
5650;SDS011;40241;52.684;9.758;2023-12-20T11:38:16;2.87;;;0.80;;
5650;SDS011;40241;52.684;9.758;2023-12-20T11:40:44;0.80;;;0.50;;
5650;SDS011;40241;52.684;9.758;2023-12-20T11:43:29;3.67;;;0.90;;
5650;SDS011;40241;52.684;9.758;2023-12-20T11:45:56;1.07;;;0.40;;
5650;SDS011;40241;52.684;9.758;2023-12-20T11:48:28;0.80;;;0.80;;
5650;SDS011;40241;52.684;9.758;2023-12-20T11:50:53;2.83;;;0.60;;
5650;SDS011;40241;52.684;9.758;2023-12-20T11:53:18;0.77;;;0.40;;
5650;SDS011;40241;52.684;9.758;2023-12-20T11:55:47;2.60;;;0.53;;
5650;SDS011;40241;52.684;9.758;2023-12-20T11:58:13;0.97;;;0.70;;
5650;SDS011;40241;52.684;9.758;2023-12-20T12:00:40;2.13;;;0.77;;
5650;SDS011;40241;52.684;9.758;2023-12-20T12:03:06;2.87;;;0.70;;
5650;SDS011;40241;52.684;9.758;2023-12-20T12:05:31;0.70;;;0.43;;
5650;SDS011;40241;52.684;9.758;2023-12-20T12:07:58;0.67;;;0.67;;
5650;SDS011;40241;52.684;9.758;2023-12-20T12:10:23;1.10;;;0.40;;
5650;SDS011;40241;52.684;9.758;2023-12-20T12:12:49;2.80;;;0.70;;
5650;SDS011;40241;52.684;9.758;2023-12-20T12:15:14;2.17;;;0.60;;
5650;SDS011;40241;52.684;9.758;2023-12-20T12:17:40;2.20;;;0.70;;
5650;SDS011;40241;52.684;9.758;2023-12-20T12:20:05;1.53;;;0.90;;
5650;SDS011;40241;52.684;9.758;2023-12-20T12:22:31;2.23;;;1.10;;
5650;SDS011;40241;52.684;9.758;2023-12-20T12:24:59;3.60;;;0.90;;
5650;SDS011;40241;52.684;9.758;2023-12-20T12:27:26;2.90;;;1.00;;
5650;SDS011;40241;52.684;9.758;2023-12-20T12:30:02;4.03;;;0.97;;
5650;SDS011;40241;52.684;9.758;2023-12-20T12:32:29;2.70;;;0.90;;
5650;SDS011;40241;52.684;9.758;2023-12-20T12:34:54;2.40;;;0.90;;
5650;SDS011;40241;52.684;9.758;2023-12-20T12:37:20;4.50;;;1.10;;
5650;SDS011;40241;52.684;9.758;2023-12-20T12:39:48;2.40;;;0.77;;
5650;SDS011;40241;52.684;9.758;2023-12-20T12:42:13;6.07;;;0.80;;
5650;SDS011;40241;52.684;9.758;2023-12-20T12:44:39;2.43;;;1.33;;
5650;SDS011;40241;52.684;9.758;2023-12-20T12:47:04;4.07;;;1.37;;
5650;SDS011;40241;52.684;9.758;2023-12-20T12:49:30;3.07;;;1.10;;
5650;SDS011;40241;52.684;9.758;2023-12-20T12:51:57;3.10;;;0.87;;
5650;SDS011;40241;52.684;9.758;2023-12-20T12:54:23;1.80;;;0.80;;
5650;SDS011;40241;52.684;9.758;2023-12-20T12:56:49;1.40;;;0.80;;
5650;SDS011;40241;52.684;9.758;2023-12-20T12:59:15;2.70;;;0.90;;
5650;SDS011;40241;52.684;9.758;2023-12-20T13:01:41;3.53;;;1.40;;
5650;SDS011;40241;52.684;9.758;2023-12-20T13:04:06;3.33;;;1.20;;
5650;SDS011;40241;52.684;9.758;2023-12-20T13:06:35;2.70;;;1.00;;
5650;SDS011;40241;52.684;9.758;2023-12-20T13:09:04;1.97;;;1.10;;
5650;SDS011;40241;52.684;9.758;2023-12-20T13:11:30;1.00;;;0.90;;
5650;SDS011;40241;52.684;9.758;2023-12-20T13:13:56;6.67;;;2.60;;
5650;SDS011;40241;52.684;9.758;2023-12-20T13:16:22;7.20;;;1.77;;
5650;SDS011;40241;52.684;9.758;2023-12-20T13:18:48;2.83;;;1.40;;
5650;SDS011;40241;52.684;9.758;2023-12-20T13:21:13;3.27;;;1.20;;
5650;SDS011;40241;52.684;9.758;2023-12-20T13:23:39;2.47;;;1.10;;
5650;SDS011;40241;52.684;9.758;2023-12-20T13:26:04;1.20;;;0.90;;
5650;SDS011;40241;52.684;9.758;2023-12-20T13:28:29;3.23;;;0.83;;
5650;SDS011;40241;52.684;9.758;2023-12-20T13:30:55;4.00;;;0.93;;
5650;SDS011;40241;52.684;9.758;2023-12-20T13:33:20;3.33;;;1.00;;
5650;SDS011;40241;52.684;9.758;2023-12-20T13:35:45;4.20;;;0.87;;
5650;SDS011;40241;52.684;9.758;2023-12-20T13:38:12;3.23;;;0.90;;
5650;SDS011;40241;52.684;9.758;2023-12-20T13:40:38;1.23;;;1.10;;
5650;SDS011;40241;52.684;9.758;2023-12-20T13:43:03;2.57;;;0.70;;
5650;SDS011;40241;52.684;9.758;2023-12-20T13:45:28;5.17;;;0.80;;
5650;SDS011;40241;52.684;9.758;2023-12-20T13:47:54;2.07;;;0.63;;
5650;SDS011;40241;52.684;9.758;2023-12-20T13:50:19;2.23;;;0.70;;
5650;SDS011;40241;52.684;9.758;2023-12-20T13:52:44;1.33;;;0.87;;
5650;SDS011;40241;52.684;9.758;2023-12-20T13:55:11;3.40;;;0.93;;
5650;SDS011;40241;52.684;9.758;2023-12-20T13:57:36;4.03;;;0.70;;
5650;SDS011;40241;52.684;9.758;2023-12-20T14:00:06;4.00;;;0.70;;
5650;SDS011;40241;52.684;9.758;2023-12-20T14:02:39;2.47;;;0.63;;
5650;SDS011;40241;52.684;9.758;2023-12-20T14:05:04;2.60;;;0.67;;
5650;SDS011;40241;52.684;9.758;2023-12-20T14:07:31;5.53;;;1.03;;
5650;SDS011;40241;52.684;9.758;2023-12-20T14:09:56;1.37;;;0.67;;
5650;SDS011;40241;52.684;9.758;2023-12-20T14:12:21;5.40;;;1.10;;
5650;SDS011;40241;52.684;9.758;2023-12-20T14:14:47;3.77;;;0.70;;
5650;SDS011;40241;52.684;9.758;2023-12-20T14:17:12;4.43;;;1.13;;
5650;SDS011;40241;52.684;9.758;2023-12-20T14:19:37;3.60;;;1.40;;
5650;SDS011;40241;52.684;9.758;2023-12-20T14:22:04;2.80;;;0.90;;
5650;SDS011;40241;52.684;9.758;2023-12-20T14:24:29;3.97;;;1.30;;
5650;SDS011;40241;52.684;9.758;2023-12-20T14:26:55;3.33;;;1.00;;
5650;SDS011;40241;52.684;9.758;2023-12-20T14:29:20;2.47;;;1.10;;
5650;SDS011;40241;52.684;9.758;2023-12-20T14:31:45;3.60;;;1.17;;
5650;SDS011;40241;52.684;9.758;2023-12-20T14:34:11;6.20;;;1.20;;
5650;SDS011;40241;52.684;9.758;2023-12-20T14:36:37;5.27;;;1.00;;
5650;SDS011;40241;52.684;9.758;2023-12-20T14:39:03;1.90;;;1.20;;
5650;SDS011;40241;52.684;9.758;2023-12-20T14:41:29;3.77;;;0.90;;
5650;SDS011;40241;52.684;9.758;2023-12-20T14:43:54;5.10;;;1.30;;
5650;SDS011;40241;52.684;9.758;2023-12-20T14:46:20;3.63;;;1.10;;
5650;SDS011;40241;52.684;9.758;2023-12-20T14:48:45;3.70;;;1.20;;
5650;SDS011;40241;52.684;9.758;2023-12-20T14:51:11;4.50;;;1.00;;
5650;SDS011;40241;52.684;9.758;2023-12-20T14:53:38;4.20;;;0.90;;
5650;SDS011;40241;52.684;9.758;2023-12-20T14:56:04;2.57;;;1.00;;